Time;durP1;ratioP1;P1;durP2;ratioP2;P2;SDS_P1;SDS_P2;PMS_P1;PMS_P2;Temp;Humidity;BMP_temperature;BMP_pressure;BME280_temperature;BME280_humidity;BME280_pressure;Samples;Min_cycle;Max_cycle;Signal;HPM_P1;HPM_P2
2021/07/04 00:00:36;;;;;;;11.35;8.25;;;;;;;;;;4163436;34;20477;-69
2021/07/04 00:03:03;;;;;;;14.70;8.95;;;;;;;;;;4163488;34;20103;-69
2021/07/04 00:05:31;;;;;;;16.27;8.27;;;;;;;;;;4163462;34;20227;-69
2021/07/04 00:07:57;;;;;;;15.80;8.10;;;;;;;;;;4163443;34;20492;-69
2021/07/04 00:10:28;;;;;;;12.10;7.97;;;;;;;;;;4163259;34;20202;-69
2021/07/04 00:12:55;;;;;;;13.10;8.50;;;;;;;;;;4150969;34;20119;-69
2021/07/04 00:15:22;;;;;;;10.93;8.10;;;;;;;;;;4150841;34;20127;-69
2021/07/04 00:45:31;;;;;;;15.10;8.50;;;;;;;;;;4357681;28;20162;-69
2021/07/04 00:47:57;;;;;;;9.07;7.25;;;;;;;;;;4178233;34;20132;-67
2021/07/04 00:50:25;;;;;;;11.23;7.65;;;;;;;;;;4181710;34;20114;-67
2021/07/04 00:52:54;;;;;;;11.80;8.05;;;;;;;;;;4177082;34;20537;-67
2021/07/04 00:55:21;;;;;;;11.18;7.95;;;;;;;;;;4176992;34;20485;-68
2021/07/04 00:57:46;;;;;;;12.37;8.15;;;;;;;;;;4177248;34;20486;-66
2021/07/04 01:00:17;;;;;;;11.90;8.35;;;;;;;;;;4177317;34;20106;-68
2021/07/04 01:02:43;;;;;;;11.68;8.75;;;;;;;;;;4170857;34;20181;-68
2021/07/04 01:05:20;;;;;;;10.25;8.50;;;;;;;;;;4176892;34;20106;-68
2021/07/04 01:07:47;;;;;;;20.02;8.40;;;;;;;;;;4177349;34;20126;-66
2021/07/04 01:10:14;;;;;;;10.85;8.23;;;;;;;;;;4164173;34;20458;-66
2021/07/04 01:12:42;;;;;;;14.10;8.82;;;;;;;;;;4176990;34;20111;-67
2021/07/04 01:15:08;;;;;;;13.07;9.30;;;;;;;;;;4177841;34;20117;-69
2021/07/04 01:17:37;;;;;;;12.70;8.80;;;;;;;;;;4176778;34;20149;-69
2021/07/04 01:20:08;;;;;;;11.38;8.60;;;;;;;;;;4176745;34;20118;-69
2021/07/04 01:22:34;;;;;;;11.07;7.90;;;;;;;;;;4164852;34;20613;-69
2021/07/04 01:25:00;;;;;;;12.27;8.15;;;;;;;;;;4176746;34;20467;-68
2021/07/04 01:27:26;;;;;;;15.52;9.00;;;;;;;;;;4164130;34;20137;-68
2021/07/04 01:29:52;;;;;;;12.43;8.23;;;;;;;;;;4176782;34;20515;-68
2021/07/04 01:32:18;;;;;;;11.88;8.40;;;;;;;;;;4176865;34;20125;-67
2021/07/04 01:34:43;;;;;;;14.73;8.02;;;;;;;;;;4176794;34;20138;-69
2021/07/04 01:37:09;;;;;;;10.00;6.87;;;;;;;;;;4176673;34;20238;-69
2021/07/04 01:39:35;;;;;;;8.68;7.32;;;;;;;;;;4176696;34;20122;-67
2021/07/04 01:42:01;;;;;;;8.48;6.37;;;;;;;;;;4176701;34;20127;-69
2021/07/04 01:44:27;;;;;;;10.32;6.68;;;;;;;;;;4176747;34;20179;-69
2021/07/04 01:46:53;;;;;;;8.68;6.32;;;;;;;;;;4163895;34;20138;-69
2021/07/04 01:49:19;;;;;;;9.73;6.62;;;;;;;;;;4176769;34;20141;-69
2021/07/04 01:51:45;;;;;;;8.43;6.15;;;;;;;;;;4178539;34;20134;-67
2021/07/04 01:54:20;;;;;;;9.18;6.05;;;;;;;;;;4166254;34;20130;-69
2021/07/04 01:56:47;;;;;;;7.90;5.82;;;;;;;;;;4166642;34;20099;-69
2021/07/04 01:59:13;;;;;;;6.85;5.65;;;;;;;;;;4178759;34;20113;-68
2021/07/04 02:01:39;;;;;;;10.10;6.37;;;;;;;;;;4178673;34;20292;-66
2021/07/04 02:04:05;;;;;;;11.32;5.65;;;;;;;;;;4178557;34;20219;-68
2021/07/04 02:06:32;;;;;;;6.70;6.00;;;;;;;;;;4178624;34;20134;-66
2021/07/04 02:08:58;;;;;;;10.63;5.90;;;;;;;;;;4178577;34;20135;-68
2021/07/04 02:11:24;;;;;;;11.65;5.62;;;;;;;;;;4166034;34;20114;-68
2021/07/04 02:13:50;;;;;;;7.50;5.47;;;;;;;;;;4165874;34;20624;-66
2021/07/04 02:16:16;;;;;;;5.82;4.95;;;;;;;;;;4180221;34;20137;-66
2021/07/04 02:18:42;;;;;;;8.30;5.12;;;;;;;;;;4178416;34;20109;-68
2021/07/04 02:21:08;;;;;;;6.18;5.28;;;;;;;;;;4154826;34;20126;-68
2021/07/04 02:23:34;;;;;;;10.25;5.05;;;;;;;;;;4178452;34;20149;-66
2021/07/04 02:26:00;;;;;;;5.75;5.15;;;;;;;;;;4178428;34;20477;-68
2021/07/04 02:28:27;;;;;;;5.62;4.68;;;;;;;;;;4178364;34;20137;-66
2021/07/04 02:30:54;;;;;;;6.20;3.75;;;;;;;;;;4165664;34;20201;-68
2021/07/04 02:33:20;;;;;;;6.35;4.55;;;;;;;;;;4165851;34;20099;-66
2021/07/04 02:35:51;;;;;;;7.03;3.90;;;;;;;;;;4165563;34;20114;-68
2021/07/04 02:38:17;;;;;;;5.37;4.10;;;;;;;;;;4154879;34;20533;-69
2021/07/04 02:40:45;;;;;;;4.55;3.90;;;;;;;;;;4178516;34;20102;-66
2021/07/04 02:43:17;;;;;;;5.07;3.70;;;;;;;;;;4156812;34;20427;-68
2021/07/04 02:45:44;;;;;;;4.10;3.70;;;;;;;;;;4178002;34;20119;-68
2021/07/04 02:48:12;;;;;;;5.30;3.50;;;;;;;;;;4178225;34;20124;-68
2021/07/04 02:50:39;;;;;;;6.57;3.75;;;;;;;;;;4178280;34;20201;-68
2021/07/04 02:53:05;;;;;;;7.78;4.45;;;;;;;;;;4166031;34;20122;-66
2021/07/04 02:55:30;;;;;;;6.35;4.03;;;;;;;;;;4178033;34;20215;-66
2021/07/04 02:57:56;;;;;;;4.78;4.00;;;;;;;;;;4178138;34;20125;-67
2021/07/04 03:00:24;;;;;;;5.20;4.15;;;;;;;;;;4178133;34;20138;-68
2021/07/04 03:02:50;;;;;;;8.02;4.20;;;;;;;;;;4165098;34;20107;-68
2021/07/04 03:05:16;;;;;;;5.25;4.50;;;;;;;;;;4177956;34;20137;-65
2021/07/04 03:07:43;;;;;;;4.45;3.83;;;;;;;;;;4178306;34;20618;-68
2021/07/04 03:10:11;;;;;;;4.82;4.00;;;;;;;;;;4165203;34;20115;-67
2021/07/04 03:12:37;;;;;;;6.65;3.95;;;;;;;;;;4177941;34;20583;-69
2021/07/04 03:15:07;;;;;;;5.15;3.83;;;;;;;;;;4165454;34;20115;-68
2021/07/04 03:17:32;;;;;;;6.18;4.40;;;;;;;;;;4177893;34;20093;-67
2021/07/04 03:19:58;;;;;;;5.18;4.60;;;;;;;;;;4165264;34;20190;-65
2021/07/04 03:22:24;;;;;;;8.25;4.70;;;;;;;;;;4177989;34;20241;-67
2021/07/04 03:24:50;;;;;;;7.70;4.70;;;;;;;;;;4165307;34;20114;-65
2021/07/04 03:27:16;;;;;;;7.07;4.62;;;;;;;;;;4177926;34;20295;-68
2021/07/04 03:29:57;;;;;;;5.75;4.28;;;;;;;;;;4181666;34;20102;-68
2021/07/04 03:32:32;;;;;;;7.72;4.93;;;;;;;;;;4177462;34;20274;-68
2021/07/04 03:34:57;;;;;;;6.45;4.15;;;;;;;;;;4177628;34;20122;-65
2021/07/04 03:37:23;;;;;;;7.22;4.45;;;;;;;;;;4165082;34;20121;-67
2021/07/04 03:39:49;;;;;;;8.48;4.93;;;;;;;;;;4178118;34;20137;-66
2021/07/04 03:42:15;;;;;;;8.52;5.00;;;;;;;;;;4177174;34;20109;-74
2021/07/04 03:44:41;;;;;;;9.50;5.30;;;;;;;;;;4177368;34;20118;-66
2021/07/04 03:47:07;;;;;;;7.93;5.30;;;;;;;;;;4177783;34;20114;-65
2021/07/04 03:49:33;;;;;;;6.95;5.30;;;;;;;;;;4177967;34;20538;-65
2021/07/04 03:51:59;;;;;;;8.73;6.10;;;;;;;;;;4177652;34;20110;-67
2021/07/04 03:54:26;;;;;;;9.50;6.40;;;;;;;;;;4177774;34;20193;-66
2021/07/04 03:57:20;;;;;;;8.20;6.25;;;;;;;;;;4177860;34;20125;-66
2021/07/04 03:59:51;;;;;;;10.90;7.07;;;;;;;;;;4177900;34;20537;-68
2021/07/04 04:02:17;;;;;;;8.63;6.57;;;;;;;;;;4178040;34;20538;-68
2021/07/04 04:04:43;;;;;;;10.98;7.32;;;;;;;;;;4177703;34;20130;-68
2021/07/04 04:07:09;;;;;;;12.25;8.45;;;;;;;;;;4164876;34;20118;-66
2021/07/04 04:09:34;;;;;;;10.55;7.22;;;;;;;;;;4165019;34;20458;-69
2021/07/04 04:12:00;;;;;;;15.25;8.15;;;;;;;;;;4177595;34;20134;-66
2021/07/04 04:14:26;;;;;;;8.65;7.07;;;;;;;;;;4163765;34;20103;-67
2021/07/04 04:16:52;;;;;;;10.75;6.75;;;;;;;;;;4177313;34;20119;-68
2021/07/04 04:19:18;;;;;;;7.45;5.75;;;;;;;;;;4167755;34;20122;-65
2021/07/04 04:21:44;;;;;;;6.07;4.85;;;;;;;;;;4164794;34;20221;-67
2021/07/04 04:24:10;;;;;;;5.40;4.35;;;;;;;;;;4164748;34;20177;-67
2021/07/04 04:26:36;;;;;;;4.45;3.58;;;;;;;;;;4177708;34;20118;-68
2021/07/04 04:29:02;;;;;;;7.45;4.93;;;;;;;;;;4177722;34;20161;-66
2021/07/04 04:31:27;;;;;;;7.30;4.65;;;;;;;;;;4164895;34;20202;-68
2021/07/04 04:33:54;;;;;;;7.70;3.62;;;;;;;;;;4177327;34;20459;-65
2021/07/04 04:36:19;;;;;;;3.53;3.00;;;;;;;;;;4177375;34;20543;-67
2021/07/04 04:38:45;;;;;;;4.47;3.70;;;;;;;;;;4177173;34;20491;-65
2021/07/04 04:41:11;;;;;;;5.25;3.80;;;;;;;;;;4177264;34;20118;-69
2021/07/04 04:43:37;;;;;;;4.03;3.53;;;;;;;;;;4176879;34;20169;-69
2021/07/04 04:46:06;;;;;;;6.50;3.30;;;;;;;;;;4177140;34;20287;-67
2021/07/04 04:48:34;;;;;;;4.43;3.40;;;;;;;;;;4177498;34;20125;-67
2021/07/04 04:51:00;;;;;;;6.93;3.40;;;;;;;;;;4177186;34;20125;-68
2021/07/04 04:53:25;;;;;;;7.93;4.53;;;;;;;;;;4177678;34;20477;-68
2021/07/04 04:55:51;;;;;;;6.07;4.75;;;;;;;;;;4177145;34;20124;-67
2021/07/04 04:58:17;;;;;;;5.68;4.87;;;;;;;;;;4177082;34;20517;-67
2021/07/04 05:00:43;;;;;;;8.93;4.43;;;;;;;;;;4177071;34;20116;-67
2021/07/04 05:03:09;;;;;;;10.15;4.05;;;;;;;;;;4177241;34;20139;-66
2021/07/04 05:05:35;;;;;;;5.37;4.07;;;;;;;;;;4164426;34;20190;-68
2021/07/04 05:08:01;;;;;;;7.55;4.03;;;;;;;;;;4164559;34;20126;-68
2021/07/04 05:10:28;;;;;;;8.73;4.60;;;;;;;;;;4177585;34;20106;-67
2021/07/04 05:12:53;;;;;;;6.80;4.78;;;;;;;;;;4164289;34;20542;-66
2021/07/04 05:15:19;;;;;;;6.32;4.18;;;;;;;;;;4176773;34;20512;-66
2021/07/04 05:17:45;;;;;;;7.43;5.20;;;;;;;;;;4176794;34;20616;-69
2021/07/04 05:20:12;;;;;;;6.22;4.68;;;;;;;;;;4177135;34;20130;-69
2021/07/04 05:22:38;;;;;;;11.77;4.95;;;;;;;;;;4176837;34;20461;-66
2021/07/04 05:25:04;;;;;;;7.87;4.37;;;;;;;;;;4176780;34;20138;-68
2021/07/04 05:27:30;;;;;;;6.85;4.97;;;;;;;;;;4179050;34;20134;-68
2021/07/04 05:29:56;;;;;;;7.10;4.22;;;;;;;;;;4179035;34;20234;-66
2021/07/04 05:32:22;;;;;;;6.53;4.50;;;;;;;;;;4178927;34;20139;-67
2021/07/04 05:34:48;;;;;;;6.93;4.43;;;;;;;;;;4178732;34;20545;-66
2021/07/04 05:37:16;;;;;;;6.03;4.00;;;;;;;;;;4178943;34;20125;-64
2021/07/04 05:39:42;;;;;;;6.28;4.47;;;;;;;;;;4178688;34;20102;-65
2021/07/04 05:42:08;;;;;;;7.40;4.47;;;;;;;;;;4178702;34;20664;-66
2021/07/04 05:44:34;;;;;;;7.37;4.53;;;;;;;;;;4178568;34;20110;-68
2021/07/04 05:47:00;;;;;;;5.55;4.20;;;;;;;;;;4178758;34;20127;-67
2021/07/04 05:49:26;;;;;;;7.82;4.65;;;;;;;;;;4154808;34;20091;-68
2021/07/04 05:51:51;;;;;;;7.00;4.10;;;;;;;;;;4178915;34;20125;-67
2021/07/04 05:54:17;;;;;;;5.15;3.62;;;;;;;;;;4166414;34;20126;-67
2021/07/04 05:56:44;;;;;;;4.68;4.10;;;;;;;;;;4154865;34;20107;-66
2021/07/04 05:59:10;;;;;;;5.68;4.40;;;;;;;;;;4178659;34;20149;-69
2021/07/04 06:01:36;;;;;;;7.90;4.25;;;;;;;;;;4178659;34;20494;-69
2021/07/04 06:04:03;;;;;;;5.57;4.03;;;;;;;;;;4178565;34;20181;-68
2021/07/04 06:06:31;;;;;;;7.57;4.82;;;;;;;;;;4178968;34;20094;-69
2021/07/04 06:08:57;;;;;;;6.90;4.90;;;;;;;;;;4178437;34;20103;-70
2021/07/04 06:11:23;;;;;;;6.32;4.57;;;;;;;;;;4178452;34;20157;-69
2021/07/04 06:13:49;;;;;;;4.90;4.00;;;;;;;;;;4178646;34;20252;-67
2021/07/04 06:16:15;;;;;;;5.82;4.20;;;;;;;;;;4178478;34;20148;-69
2021/07/04 06:18:41;;;;;;;5.62;4.00;;;;;;;;;;4178385;34;20114;-68
2021/07/04 06:21:07;;;;;;;7.30;4.25;;;;;;;;;;4178583;34;20130;-69
2021/07/04 06:23:33;;;;;;;5.75;4.15;;;;;;;;;;4178244;34;20527;-69
2021/07/04 06:25:59;;;;;;;6.40;3.83;;;;;;;;;;4178434;34;20134;-69
2021/07/04 06:31:20;;;;;;;4.50;3.57;;;;;;;;;;4168109;34;20122;-68
2021/07/04 06:33:48;;;;;;;4.75;3.95;;;;;;;;;;4178417;34;20162;-68
2021/07/04 06:36:14;;;;;;;3.42;2.83;;;;;;;;;;4178403;34;20118;-68
2021/07/04 06:38:40;;;;;;;3.92;3.50;;;;;;;;;;4177535;34;20114;-67
2021/07/04 06:41:08;;;;;;;4.78;3.58;;;;;;;;;;4178489;34;20566;-68
2021/07/04 06:43:41;;;;;;;3.65;3.17;;;;;;;;;;4178054;34;20118;-68
2021/07/04 06:46:07;;;;;;;4.28;3.40;;;;;;;;;;4178390;34;20110;-68
2021/07/04 06:48:33;;;;;;;4.45;2.90;;;;;;;;;;4178715;34;20138;-66
2021/07/04 06:50:59;;;;;;;3.47;3.15;;;;;;;;;;4178119;34;20130;-68
2021/07/04 06:53:25;;;;;;;3.05;2.55;;;;;;;;;;4165361;34;20145;-66
2021/07/04 06:55:51;;;;;;;2.70;2.35;;;;;;;;;;4178494;34;20177;-69
2021/07/04 06:58:17;;;;;;;3.28;2.97;;;;;;;;;;4178345;34;20134;-66
2021/07/04 07:00:43;;;;;;;5.55;3.70;;;;;;;;;;4178177;34;20118;-66
2021/07/04 07:03:09;;;;;;;4.85;3.00;;;;;;;;;;4178182;34;20121;-69
2021/07/04 07:05:35;;;;;;;4.62;3.08;;;;;;;;;;4178313;34;20110;-69
2021/07/04 07:08:01;;;;;;;4.00;2.80;;;;;;;;;;4178314;34;20537;-68
2021/07/04 07:10:27;;;;;;;4.90;2.97;;;;;;;;;;4178035;34;20529;-69
2021/07/04 07:12:53;;;;;;;2.95;2.65;;;;;;;;;;4178026;34;20137;-67
2021/07/04 07:15:19;;;;;;;4.50;3.05;;;;;;;;;;4178194;34;20118;-66
2021/07/04 07:17:45;;;;;;;3.05;2.33;;;;;;;;;;4177860;34;20127;-69
2021/07/04 07:20:11;;;;;;;3.70;2.70;;;;;;;;;;4165431;34;20213;-69
2021/07/04 07:22:37;;;;;;;4.75;2.58;;;;;;;;;;4178696;34;20238;-69
2021/07/04 07:25:04;;;;;;;6.78;2.70;;;;;;;;;;4177899;34;20106;-69
2021/07/04 07:27:30;;;;;;;3.20;2.60;;;;;;;;;;4177962;34;20107;-66
2021/07/04 07:29:56;;;;;;;2.78;2.47;;;;;;;;;;4177605;34;20110;-68
2021/07/04 07:32:22;;;;;;;4.60;2.72;;;;;;;;;;4179275;34;20129;-69
2021/07/04 07:34:48;;;;;;;2.53;2.33;;;;;;;;;;4177269;34;20125;-67
2021/07/04 07:37:14;;;;;;;3.53;2.65;;;;;;;;;;4177758;34;20141;-70
2021/07/04 07:39:40;;;;;;;2.83;2.40;;;;;;;;;;4177948;34;20194;-66
2021/07/04 07:42:06;;;;;;;3.17;2.53;;;;;;;;;;4177685;34;20133;-68
2021/07/04 07:44:32;;;;;;;2.92;2.40;;;;;;;;;;4172212;34;20103;-69
2021/07/04 07:46:58;;;;;;;3.45;2.30;;;;;;;;;;4167118;34;20153;-68
2021/07/04 07:49:24;;;;;;;4.80;2.58;;;;;;;;;;4177434;34;20150;-66
2021/07/04 07:51:50;;;;;;;6.15;2.80;;;;;;;;;;4177565;34;20173;-68
2021/07/04 07:54:17;;;;;;;4.80;2.50;;;;;;;;;;4168542;34;20162;-67
2021/07/04 07:56:44;;;;;;;2.65;2.45;;;;;;;;;;4164053;34;20094;-67
2021/07/04 07:59:10;;;;;;;3.62;2.85;;;;;;;;;;4164153;34;20510;-65
2021/07/04 08:01:36;;;;;;;3.87;2.50;;;;;;;;;;4165334;34;20231;-68
2021/07/04 08:04:02;;;;;;;2.40;2.20;;;;;;;;;;4164577;34;20189;-67
2021/07/04 08:06:28;;;;;;;3.17;2.30;;;;;;;;;;4177410;34;20443;-67
2021/07/04 08:08:54;;;;;;;3.72;2.75;;;;;;;;;;4164658;34;20241;-66
2021/07/04 08:11:20;;;;;;;2.50;2.30;;;;;;;;;;4177351;34;20126;-68
2021/07/04 08:13:46;;;;;;;4.43;2.62;;;;;;;;;;4177305;34;20129;-67
2021/07/04 08:16:14;;;;;;;2.40;2.20;;;;;;;;;;4177493;34;20133;-68
2021/07/04 08:18:40;;;;;;;2.90;2.50;;;;;;;;;;4175834;34;20530;-68
2021/07/04 08:21:06;;;;;;;3.78;2.60;;;;;;;;;;4163529;34;20139;-69
2021/07/04 08:23:32;;;;;;;2.83;2.42;;;;;;;;;;4163662;34;20126;-67
2021/07/04 08:25:58;;;;;;;2.35;2.15;;;;;;;;;;4163566;34;20154;-67
2021/07/04 08:28:24;;;;;;;3.25;2.17;;;;;;;;;;4163711;34;20141;-67
2021/07/04 08:30:50;;;;;;;2.55;2.35;;;;;;;;;;4163627;34;20115;-67
2021/07/04 08:33:16;;;;;;;2.62;2.37;;;;;;;;;;4163687;34;20131;-69
2021/07/04 08:35:42;;;;;;;2.80;2.33;;;;;;;;;;4163719;34;20115;-67
2021/07/04 08:38:08;;;;;;;2.47;2.28;;;;;;;;;;4151316;34;20133;-68
2021/07/04 08:40:34;;;;;;;2.90;2.47;;;;;;;;;;4150941;34;20524;-67
2021/07/04 08:43:00;;;;;;;2.37;2.17;;;;;;;;;;4163800;34;20546;-67
2021/07/04 08:45:26;;;;;;;2.60;2.33;;;;;;;;;;4152276;34;20470;-65
2021/07/04 08:47:52;;;;;;;2.87;2.58;;;;;;;;;;4164411;34;20126;-67
2021/07/04 08:50:19;;;;;;;3.17;2.28;;;;;;;;;;4177074;34;20115;-67
2021/07/04 08:52:44;;;;;;;2.08;1.87;;;;;;;;;;4169703;34;20129;-67
2021/07/04 08:55:11;;;;;;;2.33;2.12;;;;;;;;;;4177353;34;20122;-69
2021/07/04 08:57:37;;;;;;;1.87;1.70;;;;;;;;;;4176940;34;20122;-68
2021/07/04 09:00:05;;;;;;;2.65;2.42;;;;;;;;;;4152734;34;20138;-68
2021/07/04 09:02:35;;;;;;;2.47;2.28;;;;;;;;;;4176870;34;20145;-69
2021/07/04 09:05:09;;;;;;;2.50;1.75;;;;;;;;;;4177135;34;20122;-69
2021/07/04 09:07:35;;;;;;;2.60;2.00;;;;;;;;;;4177558;34;20150;-69
2021/07/04 09:10:05;;;;;;;5.90;2.50;;;;;;;;;;4177010;34;20628;-69
2021/07/04 09:12:36;;;;;;;1.80;1.70;;;;;;;;;;4164335;34;20181;-69
2021/07/04 09:15:08;;;;;;;2.25;2.05;;;;;;;;;;4176960;34;20115;-66
2021/07/04 09:17:34;;;;;;;3.12;2.53;;;;;;;;;;4176634;34;20134;-66
2021/07/04 09:20:02;;;;;;;4.07;2.45;;;;;;;;;;4164516;34;20207;-67
2021/07/04 09:22:34;;;;;;;24.67;2.83;;;;;;;;;;4177850;34;20204;-66
2021/07/04 09:25:19;;;;;;;3.42;2.67;;;;;;;;;;4152989;34;20118;-65
2021/07/04 09:28:15;;;;;;;3.03;2.30;;;;;;;;;;4177315;34;20124;-68
2021/07/04 09:30:45;;;;;;;2.80;2.28;;;;;;;;;;4175046;34;20442;-69
2021/07/04 09:33:32;;;;;;;4.35;2.17;;;;;;;;;;4176913;34;20099;-68
2021/07/04 09:36:06;;;;;;;2.70;2.40;;;;;;;;;;4176538;34;20102;-71
2021/07/04 09:38:46;;;;;;;3.77;2.33;;;;;;;;;;4176905;34;20511;-69
2021/07/04 09:41:13;;;;;;;3.37;2.40;;;;;;;;;;4164161;34;20197;-68
2021/07/04 09:43:39;;;;;;;2.00;1.80;;;;;;;;;;4163937;34;20542;-67
2021/07/04 09:46:19;;;;;;;2.75;2.53;;;;;;;;;;4170255;34;20126;-67
2021/07/04 09:48:47;;;;;;;2.30;2.10;;;;;;;;;;4170819;34;20142;-67
2021/07/04 09:51:21;;;;;;;2.50;2.30;;;;;;;;;;4166413;34;20219;-67
2021/07/04 09:53:52;;;;;;;2.70;2.40;;;;;;;;;;4157160;34;20415;-65
2021/07/04 09:56:25;;;;;;;2.80;2.50;;;;;;;;;;4180273;34;20156;-65
2021/07/04 09:58:55;;;;;;;2.00;1.80;;;;;;;;;;4176362;34;20102;-63
2021/07/04 10:01:38;;;;;;;2.28;1.95;;;;;;;;;;4176721;34;20083;-65
2021/07/04 10:04:07;;;;;;;2.12;1.85;;;;;;;;;;4165900;34;20106;-65
2021/07/04 10:06:53;;;;;;;3.85;2.55;;;;;;;;;;4150130;34;20140;-65
2021/07/04 10:09:20;;;;;;;2.97;2.67;;;;;;;;;;4162231;34;20119;-65
2021/07/04 10:11:47;;;;;;;5.50;2.58;;;;;;;;;;4150451;34;20105;-64
2021/07/04 10:14:12;;;;;;;4.78;2.50;;;;;;;;;;4152169;34;20194;-65
2021/07/04 10:16:42;;;;;;;3.67;2.42;;;;;;;;;;4164887;34;20130;-65
2021/07/04 10:19:07;;;;;;;2.67;2.00;;;;;;;;;;4164579;34;20575;-61
2021/07/04 10:21:33;;;;;;;6.10;2.35;;;;;;;;;;4153570;34;20547;-62
2021/07/04 10:23:59;;;;;;;3.70;2.30;;;;;;;;;;4165384;34;20126;-62
2021/07/04 10:26:25;;;;;;;2.50;2.30;;;;;;;;;;4178183;34;20173;-63
2021/07/04 10:28:55;;;;;;;5.03;2.53;;;;;;;;;;4165700;34;20197;-63
2021/07/04 10:31:21;;;;;;;2.20;1.73;;;;;;;;;;4166262;34;20174;-63
2021/07/04 10:34:03;;;;;;;2.33;2.12;;;;;;;;;;4178187;34;20138;-64
2021/07/04 10:36:32;;;;;;;3.33;2.33;;;;;;;;;;4167115;34;20192;-63
2021/07/04 10:39:03;;;;;;;2.28;2.08;;;;;;;;;;4178180;34;20514;-63
2021/07/04 10:41:31;;;;;;;2.95;2.28;;;;;;;;;;4154385;34;20153;-63
2021/07/04 10:43:59;;;;;;;3.05;2.28;;;;;;;;;;4178015;34;20225;-63
2021/07/04 10:46:44;;;;;;;2.50;2.15;;;;;;;;;;4177948;34;20476;-62
2021/07/04 10:49:19;;;;;;;2.47;2.28;;;;;;;;;;4175084;34;20103;-66
2021/07/04 10:51:55;;;;;;;2.40;2.20;;;;;;;;;;4166474;34;20202;-65
2021/07/04 10:54:51;;;;;;;2.40;2.10;;;;;;;;;;4177890;34;20109;-65
2021/07/04 10:57:21;;;;;;;4.90;2.70;;;;;;;;;;4156863;34;20461;-65
2021/07/04 11:00:06;;;;;;;3.60;2.42;;;;;;;;;;4164581;34;20333;-64
2021/07/04 11:02:54;;;;;;;2.67;1.80;;;;;;;;;;4164472;34;20129;-64
2021/07/04 11:05:33;;;;;;;2.37;2.17;;;;;;;;;;4170717;34;20095;-71
2021/07/04 11:08:09;;;;;;;2.17;1.92;;;;;;;;;;4178093;34;20137;-63
2021/07/04 11:10:52;;;;;;;1.65;1.55;;;;;;;;;;4169763;34;20618;-64
2021/07/04 11:13:18;;;;;;;1.60;1.50;;;;;;;;;;4176082;34;20102;-64
2021/07/04 11:15:45;;;;;;;3.30;2.05;;;;;;;;;;4164357;34;20117;-64
2021/07/04 11:18:18;;;;;;;5.62;2.03;;;;;;;;;;4154505;34;20122;-65
2021/07/04 11:20:44;;;;;;;4.43;2.17;;;;;;;;;;4177810;34;20091;-64
2021/07/04 15:32:53;;;;;;;1.60;1.50;;;;;;;;;;5233698;27;20075;-63
2021/07/04 15:35:19;;;;;;;4.53;1.80;;;;;;;;;;5243119;27;20478;-66
2021/07/04 15:37:45;;;;;;;3.05;1.92;;;;;;;;;;5242691;27;20099;-64
2021/07/04 16:14:00;;;;;;;1.95;1.77;;;;;;;;;;5193109;27;20072;-67
2021/07/04 16:16:26;;;;;;;4.12;2.22;;;;;;;;;;5199605;27;20618;-68
2021/07/04 16:18:54;;;;;;;3.03;1.85;;;;;;;;;;5199893;27;20109;-70
2021/07/04 16:21:21;;;;;;;1.92;1.70;;;;;;;;;;5199838;27;20089;-71
2021/07/04 16:23:47;;;;;;;2.28;1.73;;;;;;;;;;5200224;27;20069;-70
2021/07/04 16:26:13;;;;;;;9.07;2.37;;;;;;;;;;5199814;27;20102;-64
2021/07/04 16:28:39;;;;;;;1.95;1.77;;;;;;;;;;5200964;27;20086;-64
2021/07/04 16:31:05;;;;;;;3.58;2.08;;;;;;;;;;5181812;27;20191;-68
2021/07/04 16:33:31;;;;;;;2.47;2.17;;;;;;;;;;5182304;27;20089;-65
2021/07/04 16:35:57;;;;;;;7.00;2.58;;;;;;;;;;5201075;27;20074;-70
2021/07/04 16:38:23;;;;;;;2.05;1.75;;;;;;;;;;5201350;27;20074;-72
2021/07/04 16:40:49;;;;;;;1.95;1.75;;;;;;;;;;5201034;27;20085;-71
2021/07/04 16:43:15;;;;;;;5.50;2.42;;;;;;;;;;5181739;27;20479;-70
2021/07/04 16:45:42;;;;;;;9.50;2.08;;;;;;;;;;5201178;27;20077;-75
2021/07/04 16:48:08;;;;;;;5.85;2.28;;;;;;;;;;5201672;27;20175;-76
2021/07/04 16:50:34;;;;;;;3.03;2.10;;;;;;;;;;5182828;27;20424;-72
2021/07/04 16:53:00;;;;;;;5.80;1.60;;;;;;;;;;5201223;27;20097;-69
2021/07/04 16:55:26;;;;;;;2.78;1.87;;;;;;;;;;5201510;27;20096;-75
2021/07/04 16:57:52;;;;;;;1.77;1.65;;;;;;;;;;5165319;27;20117;-67
2021/07/04 17:00:39;;;;;;;3.40;2.10;;;;;;;;;;5201618;27;20065;-74
2021/07/04 17:03:06;;;;;;;4.43;2.17;;;;;;;;;;5164322;27;20077;-73
2021/07/04 17:05:32;;;;;;;5.87;2.00;;;;;;;;;;5182000;27;20157;-71
2021/07/04 17:07:58;;;;;;;2.85;1.80;;;;;;;;;;5182139;27;20188;-74
2021/07/04 17:10:24;;;;;;;9.95;2.60;;;;;;;;;;5182131;27;20066;-73
2021/07/04 17:12:51;;;;;;;4.03;2.42;;;;;;;;;;5181815;27;20115;-76
2021/07/04 17:15:17;;;;;;;10.68;2.80;;;;;;;;;;5164857;27;20174;-77
2021/07/04 17:17:43;;;;;;;3.42;2.60;;;;;;;;;;5181918;27;20651;-76
2021/07/04 17:20:10;;;;;;;3.60;2.50;;;;;;;;;;5200899;27;20164;-73
2021/07/04 17:22:36;;;;;;;3.70;2.10;;;;;;;;;;5201050;27;20195;-71
2021/07/04 17:25:04;;;;;;;5.40;2.55;;;;;;;;;;5201043;27;20101;-72
2021/07/04 17:27:30;;;;;;;3.45;2.40;;;;;;;;;;5181984;27;20080;-71
2021/07/04 17:29:55;;;;;;;4.75;2.20;;;;;;;;;;5201018;27;20077;-71
2021/07/04 17:32:21;;;;;;;5.10;2.30;;;;;;;;;;5181978;27;20184;-75
2021/07/04 17:34:47;;;;;;;5.43;2.55;;;;;;;;;;5182161;27;20065;-69
2021/07/04 17:37:13;;;;;;;3.72;2.08;;;;;;;;;;5201287;27;20101;-68
2021/07/04 17:39:39;;;;;;;5.47;2.37;;;;;;;;;;5200833;27;20104;-69
2021/07/04 17:42:06;;;;;;;2.25;1.95;;;;;;;;;;5181726;27;20117;-70
2021/07/04 17:44:31;;;;;;;4.05;2.37;;;;;;;;;;5201278;27;20185;-69
2021/07/04 17:46:58;;;;;;;4.30;2.50;;;;;;;;;;5200851;27;20488;-70
2021/07/04 17:49:24;;;;;;;6.00;2.12;;;;;;;;;;5200829;27;20195;-68
2021/07/04 17:51:50;;;;;;;8.13;2.58;;;;;;;;;;5200765;27;20500;-69
2021/07/04 17:54:16;;;;;;;4.32;2.45;;;;;;;;;;5181464;27;20184;-69
2021/07/04 17:56:42;;;;;;;2.05;1.90;;;;;;;;;;5200953;27;20109;-72
2021/07/04 17:59:08;;;;;;;4.25;2.70;;;;;;;;;;5201809;27;20475;-73
2021/07/04 18:01:34;;;;;;;3.05;2.25;;;;;;;;;;5202187;27;20528;-72
2021/07/04 18:04:00;;;;;;;3.45;2.55;;;;;;;;;;5181607;27;20417;-73
2021/07/04 18:06:26;;;;;;;2.75;2.45;;;;;;;;;;5181740;27;20097;-75
2021/07/04 18:08:52;;;;;;;2.72;2.40;;;;;;;;;;5181663;27;20082;-74
2021/07/04 18:11:19;;;;;;;3.28;2.60;;;;;;;;;;5201113;27;20479;-70
2021/07/04 18:13:44;;;;;;;4.15;3.25;;;;;;;;;;5200743;27;20066;-70
2021/07/04 18:16:11;;;;;;;2.53;2.05;;;;;;;;;;5200528;27;20562;-70
2021/07/04 18:18:38;;;;;;;4.10;2.25;;;;;;;;;;5181476;27;20081;-69
2021/07/04 18:21:04;;;;;;;5.55;2.55;;;;;;;;;;5181292;27;20084;-70
2021/07/04 18:23:33;;;;;;;2.28;2.08;;;;;;;;;;5181341;27;20180;-70
2021/07/04 18:26:03;;;;;;;1.90;1.65;;;;;;;;;;5181901;27;20089;-70
2021/07/04 18:28:29;;;;;;;3.30;2.78;;;;;;;;;;5200714;27;20081;-71
2021/07/04 18:30:56;;;;;;;4.72;2.62;;;;;;;;;;5200589;27;20091;-71
2021/07/04 18:33:23;;;;;;;5.07;2.53;;;;;;;;;;5164712;27;20493;-72
2021/07/04 18:35:50;;;;;;;3.15;2.53;;;;;;;;;;5200572;27;20077;-72
2021/07/04 18:38:16;;;;;;;3.53;2.35;;;;;;;;;;5181119;27;20569;-70
2021/07/04 18:40:42;;;;;;;6.30;2.90;;;;;;;;;;5200601;27;20157;-69
2021/07/04 18:43:07;;;;;;;4.55;3.00;;;;;;;;;;5181533;27;20125;-70
2021/07/04 18:45:34;;;;;;;2.67;2.12;;;;;;;;;;5200570;27;20085;-68
2021/07/04 18:47:59;;;;;;;2.40;2.05;;;;;;;;;;5200644;27;20113;-70
2021/07/04 18:50:26;;;;;;;1.95;1.80;;;;;;;;;;5200869;27;20089;-70
2021/07/04 18:52:51;;;;;;;1.55;1.45;;;;;;;;;;5181291;27;20180;-70
2021/07/04 18:55:17;;;;;;;1.58;1.48;;;;;;;;;;5200518;27;20432;-70
2021/07/04 18:57:43;;;;;;;2.65;1.83;;;;;;;;;;5200533;27;20609;-69
2021/07/04 19:00:20;;;;;;;2.28;2.10;;;;;;;;;;5200337;27;20409;-70
2021/07/04 19:02:46;;;;;;;2.15;1.80;;;;;;;;;;5181294;27;20579;-70
2021/07/04 19:05:15;;;;;;;3.05;1.98;;;;;;;;;;5181280;27;20081;-70
2021/07/04 19:07:50;;;;;;;2.28;1.83;;;;;;;;;;5181157;27;20088;-70
2021/07/04 19:10:18;;;;;;;3.00;2.12;;;;;;;;;;5200733;27;20153;-78
2021/07/04 19:12:44;;;;;;;3.65;2.22;;;;;;;;;;5164081;27;20078;-77
2021/07/04 19:15:11;;;;;;;2.20;2.00;;;;;;;;;;5163796;27;20098;-78
2021/07/04 19:17:37;;;;;;;3.08;1.75;;;;;;;;;;5201129;27;20089;-77
2021/07/04 19:20:05;;;;;;;2.50;1.90;;;;;;;;;;5182073;27;20090;-77
2021/07/04 19:22:32;;;;;;;5.10;1.70;;;;;;;;;;5181493;27;20573;-73
2021/07/04 19:24:58;;;;;;;1.90;1.77;;;;;;;;;;5200942;27;20165;-72
2021/07/04 19:27:24;;;;;;;7.65;2.10;;;;;;;;;;5200548;27;20195;-73
2021/07/04 19:29:50;;;;;;;3.15;2.28;;;;;;;;;;5201189;27;20101;-79
2021/07/04 19:32:15;;;;;;;5.10;2.10;;;;;;;;;;5165716;27;20101;-79
2021/07/04 19:34:41;;;;;;;5.65;2.10;;;;;;;;;;5181622;27;20149;-78
2021/07/04 19:37:07;;;;;;;4.57;2.05;;;;;;;;;;5200986;27;20101;-70
2021/07/04 19:39:34;;;;;;;2.45;2.20;;;;;;;;;;5200191;27;20480;-70
2021/07/04 19:42:01;;;;;;;3.00;2.40;;;;;;;;;;5200102;27;20093;-70
2021/07/04 19:44:27;;;;;;;4.60;2.55;;;;;;;;;;5180896;27;20070;-70
2021/07/04 19:46:53;;;;;;;3.72;2.55;;;;;;;;;;5200391;27;20179;-70
2021/07/04 19:49:19;;;;;;;5.15;2.65;;;;;;;;;;5181010;27;20523;-70
2021/07/04 19:51:44;;;;;;;2.95;2.50;;;;;;;;;;5201171;27;20176;-70
2021/07/04 19:54:11;;;;;;;4.10;2.45;;;;;;;;;;5181290;27;20085;-70
2021/07/04 19:56:36;;;;;;;3.85;2.67;;;;;;;;;;5181568;27;20093;-70